KGSH/GSH METAR and TAF weather

Enter ICAO airport designator
Station Type Date Time Source
KGSH METAR 2022/09/26 09:53 UTC NOAA

KGSH 260953Z AUTO 25010KT 10SM CLR 11/09 A2974 RMK AO2 SLP070 T01060089


Station Type Date Time Source
KGSH Decoded METAR 2022/09/26 09:53 UTC NOAA

GOSHEN MUNICIPAL AIRPORT, IN, United States (KGSH) 41-32N 85-47W 252M
Sep 26, 2022 - 05:53 AM EDT / 2022.09.26 0953 UTC
Wind: from the WSW (250 degrees) at 12 MPH (10 KT):0
Visibility: 10 mile(s):0
Sky conditions: clear
Temperature: 51.1 F (10.6 C)
Dew Point: 48.0 F (8.9 C)
Relative Humidity: 89%
Pressure (altimeter): 29.74 in. Hg (1007 hPa)
ob: KGSH 260953Z AUTO 25010KT 10SM CLR 11/09 A2974 RMK AO2 SLP070 T01060089
cycle: 10

Station Type Date Time Source
KGSH TAF UTC NOAA

Error!

Example: see airport list